Time;durP1;ratioP1;P1;durP2;ratioP2;P2;SDS_P1;SDS_P2;PMS_P1;PMS_P2;Temp;Humidity;BMP_temperature;BMP_pressure;BME280_temperature;BME280_humidity;BME280_pressure;Samples;Min_cycle;Max_cycle;Signal;HPM_P1;HPM_P2
2021/08/21 00:02:12;;;;;;;1999.90;999.90;;;;;;;18.95;63.33;95707.38;5109405;28;20195;-75
2021/08/21 00:04:39;;;;;;;1999.90;999.90;;;;;;;18.87;63.12;95709.88;5109648;28;20666;-75
2021/08/21 00:07:07;;;;;;;1999.90;999.90;;;;;;;18.91;61.43;95715.97;5109718;28;20221;-75
2021/08/21 00:09:34;;;;;;;1999.90;999.90;;;;;;;18.87;60.94;95714.38;5109701;28;20198;-74
2021/08/21 00:12:01;;;;;;;1999.90;999.90;;;;;;;18.77;62.85;95718.28;5109532;28;20281;-74
2021/08/21 00:14:28;;;;;;;1999.90;999.90;;;;;;;18.52;64.72;95716.09;5113502;28;20267;-74
2021/08/21 00:16:57;;;;;;;1999.90;999.90;;;;;;;18.38;64.78;95714.63;5113869;28;20236;-74
2021/08/21 00:19:24;;;;;;;1999.90;999.90;;;;;;;18.42;64.92;95723.38;5113683;28;20701;-73
2021/08/21 00:21:51;;;;;;;1999.90;999.90;;;;;;;18.41;64.90;95718.44;5113322;28;20199;-74
2021/08/21 00:24:18;;;;;;;1999.90;999.90;;;;;;;18.41;65.36;95721.84;5113108;28;20195;-74
2021/08/21 00:26:45;;;;;;;1999.90;999.90;;;;;;;18.04;68.85;95712.59;5110364;28;20271;-74
2021/08/21 00:29:13;;;;;;;1999.90;999.90;;;;;;;17.77;69.60;95715.97;5092914;28;20196;-73
2021/08/21 00:31:40;;;;;;;1999.90;999.90;;;;;;;17.90;68.96;95722.72;5093125;28;20192;-74
2021/08/21 00:34:08;;;;;;;1999.90;999.90;;;;;;;18.00;68.88;95716.97;5092838;28;20203;-75
2021/08/21 00:36:36;;;;;;;1999.90;999.90;;;;;;;18.08;68.03;95722.09;5093408;28;20257;-75
2021/08/21 00:39:03;;;;;;;1999.90;999.90;;;;;;;17.95;67.82;95720.63;5093445;28;20624;-75
2021/08/21 00:41:30;;;;;;;1999.90;999.90;;;;;;;18.02;67.81;95720.81;5092917;28;20200;-75
2021/08/21 00:43:57;;;;;;;1999.90;999.90;;;;;;;17.84;68.89;95719.56;5093249;28;20287;-75
2021/08/21 00:46:24;;;;;;;1999.90;999.90;;;;;;;17.77;70.25;95716.75;5092938;28;20293;-75
2021/08/21 00:48:51;;;;;;;1999.90;999.90;;;;;;;17.78;69.29;95720.91;5096925;28;20231;-75
2021/08/21 00:51:20;;;;;;;1999.90;999.90;;;;;;;17.68;70.85;95721.38;5110600;28;20199;-74
2021/08/21 00:53:47;;;;;;;1999.90;999.90;;;;;;;17.52;71.53;95715.25;5106317;28;20200;-75
2021/08/21 00:56:15;;;;;;;1999.90;999.90;;;;;;;17.32;72.68;95714.28;5092729;28;20943;-74
2021/08/21 00:58:42;;;;;;;1999.90;999.90;;;;;;;17.36;72.11;95714.38;5109914;28;20211;-74
2021/08/21 01:01:09;;;;;;;1999.90;999.90;;;;;;;17.47;73.07;95710.22;5113018;28;20965;-74
2021/08/21 01:03:36;;;;;;;1999.90;999.90;;;;;;;17.19;74.28;95710.88;5107364;28;20211;-72
2021/08/21 01:06:03;;;;;;;1999.90;999.90;;;;;;;17.08;75.15;95712.44;5100265;28;20219;-70
2021/08/21 01:08:32;;;;;;;1999.90;999.90;;;;;;;16.90;76.28;95716.34;5097894;28;20218;-70
2021/08/21 01:10:59;;;;;;;1999.90;999.90;;;;;;;16.63;77.83;95725.63;5112494;28;20691;-71
2021/08/21 01:13:27;;;;;;;1999.90;999.90;;;;;;;16.64;78.05;95718.50;5112619;28;20252;-73
2021/08/21 01:15:54;;;;;;;1999.90;999.90;;;;;;;16.57;78.80;95726.13;5112290;28;20191;-71
2021/08/21 01:18:23;;;;;;;1999.90;999.90;;;;;;;16.49;79.60;95727.75;5112288;28;20662;-70
2021/08/21 01:20:50;;;;;;;1999.90;999.90;;;;;;;16.41;79.62;95733.84;5112294;28;20194;-71
2021/08/21 01:23:17;;;;;;;1999.90;999.90;;;;;;;16.23;80.51;95732.50;5111777;28;20277;-70
2021/08/21 01:25:46;;;;;;;1999.90;999.90;;;;;;;16.04;81.83;95735.56;5112410;28;20218;-76
2021/08/21 01:28:14;;;;;;;1999.90;999.90;;;;;;;16.04;82.07;95737.44;5112682;28;20191;-76
2021/08/21 01:30:42;;;;;;;1999.90;999.90;;;;;;;15.98;82.31;95746.59;5112411;28;20573;-75
2021/08/21 01:33:09;;;;;;;1999.90;999.90;;;;;;;16.04;82.49;95738.19;5112173;28;20688;-75
2021/08/21 01:35:36;;;;;;;1999.90;999.90;;;;;;;16.06;82.15;95741.28;5112018;28;20195;-76
2021/08/21 01:38:04;;;;;;;1999.90;999.90;;;;;;;16.08;81.92;95741.72;5112318;28;20199;-75
2021/08/21 01:40:31;;;;;;;1999.90;999.90;;;;;;;15.98;82.61;95747.34;5112223;28;20206;-75
2021/08/21 01:42:58;;;;;;;1999.90;999.90;;;;;;;16.05;81.97;95747.59;5111902;28;20252;-76
2021/08/21 01:45:27;;;;;;;1999.90;999.90;;;;;;;16.26;80.68;95742.31;5111890;28;20195;-76
2021/08/21 01:47:54;;;;;;;1999.90;999.90;;;;;;;16.46;79.85;95740.75;5112040;28;20191;-73
2021/08/21 01:50:21;;;;;;;1999.90;999.90;;;;;;;16.39;80.02;95732.66;5110915;28;20203;-73
2021/08/21 01:52:49;;;;;;;1999.90;999.90;;;;;;;16.33;80.23;95730.25;5111922;28;20720;-73
2021/08/21 01:55:17;;;;;;;1999.90;999.90;;;;;;;16.32;79.65;95736.56;5111519;28;20199;-68
2021/08/21 01:57:46;;;;;;;1999.90;999.90;;;;;;;16.28;79.06;95743.56;5111798;28;20264;-75
2021/08/21 02:00:14;;;;;;;1999.90;999.90;;;;;;;16.35;78.54;95729.91;5111775;28;20257;-77
2021/08/21 02:02:43;;;;;;;1999.90;999.90;;;;;;;16.30;78.36;95732.72;5105452;28;20977;-75
2021/08/21 02:05:11;;;;;;;1999.90;999.90;;;;;;;16.22;78.79;95742.22;5109101;28;20206;-76
2021/08/21 02:07:38;;;;;;;1999.90;999.90;;;;;;;16.34;78.33;95749.34;5110681;28;20223;-76
2021/08/21 02:10:06;;;;;;;1999.90;999.90;;;;;;;16.42;77.39;95758.22;5107316;28;20272;-72
2021/08/21 02:12:34;;;;;;;1999.90;999.90;;;;;;;16.26;77.96;95747.56;5091191;28;20592;-76
2021/08/21 02:15:01;;;;;;;1999.90;999.90;;;;;;;16.14;78.95;95750.16;5101630;28;20191;-75
2021/08/21 02:17:28;;;;;;;1999.90;999.90;;;;;;;15.99;80.58;95746.25;5109337;28;20187;-76
2021/08/21 02:19:57;;;;;;;1999.90;999.90;;;;;;;15.98;80.98;95752.59;5109399;28;20566;-75
2021/08/21 02:22:24;;;;;;;1999.90;999.90;;;;;;;15.88;81.39;95748.53;5111214;28;20199;-76
2021/08/21 02:24:55;;;;;;;1999.90;999.90;;;;;;;15.70;82.26;95751.56;5111543;28;20207;-77
2021/08/21 02:27:24;;;;;;;1999.90;999.90;;;;;;;15.50;82.87;95753.81;5111234;28;20213;-75
2021/08/21 02:29:52;;;;;;;1999.90;999.90;;;;;;;15.41;84.05;95747.09;5110563;28;20195;-73
2021/08/21 02:32:19;;;;;;;1999.90;999.90;;;;;;;15.34;85.40;95754.69;5107755;28;20199;-72
2021/08/21 02:34:46;;;;;;;1999.90;999.90;;;;;;;15.42;85.03;95754.66;5110703;28;20271;-73
2021/08/21 02:37:17;;;;;;;1999.90;999.90;;;;;;;15.37;85.32;95748.81;5110137;28;20233;-74
2021/08/21 02:39:45;;;;;;;1999.90;999.90;;;;;;;15.34;85.46;95760.69;5110927;28;20256;-74
2021/08/21 02:42:12;;;;;;;1999.90;999.90;;;;;;;15.09;85.51;95757.09;5110542;28;20206;-73
2021/08/21 02:44:39;;;;;;;1999.90;999.90;;;;;;;15.02;85.82;95761.31;5110899;28;20273;-73
2021/08/21 02:47:07;;;;;;;1999.90;999.90;;;;;;;15.06;85.67;95759.59;5110404;28;20694;-76
2021/08/21 02:49:34;;;;;;;1999.90;999.90;;;;;;;15.17;85.61;95766.03;5110510;28;20306;-76
2021/08/21 02:52:02;;;;;;;1999.90;999.90;;;;;;;15.12;86.07;95760.97;5110744;28;20199;-75
2021/08/21 02:54:31;;;;;;;1999.90;999.90;;;;;;;15.12;85.58;95760.19;5110618;28;20211;-75
2021/08/21 02:56:59;;;;;;;1999.90;999.90;;;;;;;15.13;85.62;95759.88;5110636;28;20199;-75
2021/08/21 02:59:26;;;;;;;1999.90;999.90;;;;;;;15.01;85.80;95762.38;5106184;27;20203;-70
2021/08/21 03:01:53;;;;;;;1999.90;999.90;;;;;;;14.88;87.22;95768.59;5110326;28;20256;-76
2021/08/21 03:04:20;;;;;;;1999.90;999.90;;;;;;;14.86;87.12;95776.75;5110345;28;21132;-76
2021/08/21 03:06:47;;;;;;;1999.90;999.90;;;;;;;15.02;86.13;95769.16;5110210;28;20291;-76
2021/08/21 03:09:14;;;;;;;1999.90;999.90;;;;;;;15.07;85.77;95767.13;5110460;28;20844;-75
2021/08/21 03:11:43;;;;;;;1999.90;999.90;;;;;;;15.03;86.25;95766.25;5111986;28;20442;-74
2021/08/21 03:14:10;;;;;;;1999.90;999.90;;;;;;;15.02;86.66;95769.16;5105094;28;20204;-76
2021/08/21 03:16:37;;;;;;;1999.90;999.90;;;;;;;14.99;86.34;95767.19;5089945;28;20206;-74
2021/08/21 03:19:04;;;;;;;1999.90;999.90;;;;;;;14.77;86.28;95775.25;5089638;28;20207;-72
2021/08/21 03:21:31;;;;;;;1999.90;999.90;;;;;;;14.78;86.54;95780.19;5090006;28;20196;-72
2021/08/21 03:23:58;;;;;;;1999.90;999.90;;;;;;;14.79;87.14;95783.56;5089863;28;20196;-77
2021/08/21 03:26:25;;;;;;;1999.90;999.90;;;;;;;14.67;86.85;95786.03;5089696;28;20223;-74
2021/08/21 03:28:53;;;;;;;1999.90;999.90;;;;;;;14.57;87.15;95782.69;5098056;28;20260;-74
2021/08/21 03:31:20;;;;;;;1999.90;999.90;;;;;;;14.42;87.41;95787.63;5115372;28;20263;-74
2021/08/21 03:33:47;;;;;;;1999.90;999.90;;;;;;;14.24;87.87;95784.25;5113410;28;20198;-73
2021/08/21 03:36:14;;;;;;;1999.90;999.90;;;;;;;14.29;87.87;95788.53;5110055;28;20203;-76
2021/08/21 03:38:42;;;;;;;1999.90;999.90;;;;;;;14.34;87.53;95786.53;5110276;28;20195;-75
2021/08/21 03:41:09;;;;;;;1999.90;999.90;;;;;;;14.13;89.39;95786.41;5109978;28;20199;-74
2021/08/21 03:43:36;;;;;;;1999.90;999.90;;;;;;;14.35;89.22;95790.66;5110086;28;20248;-75
2021/08/21 03:46:04;;;;;;;1999.90;999.90;;;;;;;14.34;89.72;95791.78;5109762;28;20272;-76
2021/08/21 03:48:31;;;;;;;1999.90;999.90;;;;;;;14.39;89.54;95798.72;5109008;28;20795;-76
2021/08/21 03:50:58;;;;;;;1999.90;999.90;;;;;;;14.39;89.80;95796.88;5109636;28;20255;-76
2021/08/21 03:53:25;;;;;;;1999.90;999.90;;;;;;;14.32;89.48;95801.75;5110037;28;20625;-76
2021/08/21 03:55:52;;;;;;;1999.90;999.90;;;;;;;14.45;88.89;95802.69;5109739;28;20244;-74
2021/08/21 03:58:19;;;;;;;1999.90;999.90;;;;;;;14.48;88.95;95808.09;5105805;28;20203;-76
2021/08/21 04:00:46;;;;;;;1999.90;999.90;;;;;;;14.29;89.78;95810.22;5106252;28;20326;-75
2021/08/21 04:03:15;;;;;;;1999.90;999.90;;;;;;;14.51;89.22;95811.91;5100624;28;20207;-76
2021/08/21 04:05:42;;;;;;;1999.90;999.90;;;;;;;14.23;89.06;95811.47;5104775;28;20290;-76
2021/08/21 04:08:09;;;;;;;1999.90;999.90;;;;;;;14.30;88.78;95805.75;5106887;28;20234;-73
2021/08/21 04:10:36;;;;;;;1999.90;999.90;;;;;;;14.36;89.14;95809.75;5089118;28;20264;-70
2021/08/21 04:13:03;;;;;;;1999.90;999.90;;;;;;;14.40;89.66;95811.47;5090407;28;20671;-73
2021/08/21 04:15:30;;;;;;;1999.90;999.90;;;;;;;14.51;89.25;95806.69;5107389;28;20199;-75
2021/08/21 04:17:57;;;;;;;1999.90;999.90;;;;;;;14.69;88.96;95818.69;5106327;28;20923;-75
2021/08/21 04:20:26;;;;;;;1999.90;999.90;;;;;;;15.15;87.70;95823.16;5106221;28;20199;-75
2021/08/21 04:22:53;;;;;;;1999.90;999.90;;;;;;;15.42;86.08;95817.50;5107287;28;20199;-75
2021/08/21 04:25:20;;;;;;;1999.90;999.90;;;;;;;15.74;85.40;95823.22;5107058;28;20199;-74
2021/08/21 04:27:47;;;;;;;1999.90;999.90;;;;;;;15.97;84.39;95819.22;5107094;28;20218;-74
2021/08/21 04:30:15;;;;;;;1999.90;999.90;;;;;;;16.29;83.00;95820.34;5107153;28;20533;-77
2021/08/21 04:32:42;;;;;;;1999.90;999.90;;;;;;;16.52;81.63;95829.44;5105812;28;20740;-74
2021/08/21 04:35:09;;;;;;;1999.90;999.90;;;;;;;16.67;80.94;95830.72;5109170;28;20699;-74
2021/08/21 04:37:38;;;;;;;1999.90;999.90;;;;;;;16.70;81.45;95830.84;5109209;28;20203;-74
2021/08/21 04:40:07;;;;;;;1999.90;999.90;;;;;;;17.08;80.90;95833.25;5109307;28;20195;-75
2021/08/21 04:42:34;;;;;;;1999.90;999.90;;;;;;;17.34;79.86;95834.78;5108979;28;20191;-75
2021/08/21 04:45:01;;;;;;;1999.90;999.90;;;;;;;17.67;78.50;95840.75;5108880;28;20195;-76
2021/08/21 04:47:28;;;;;;;1999.90;999.90;;;;;;;17.97;77.62;95839.41;5091338;28;20223;-74
2021/08/21 04:49:56;;;;;;;1999.90;999.90;;;;;;;18.24;76.76;95842.41;5101681;28;20223;-75
2021/08/21 04:52:24;;;;;;;1999.90;999.90;;;;;;;18.49;76.93;95844.63;5108919;28;20273;-75
2021/08/21 04:54:52;;;;;;;1999.90;999.90;;;;;;;18.46;77.25;95844.53;5108976;28;20195;-74
2021/08/21 04:57:19;;;;;;;1999.90;999.90;;;;;;;18.65;76.07;95851.84;5108735;28;20591;-74
2021/08/21 04:59:47;;;;;;;1999.90;999.90;;;;;;;18.49;75.24;95849.13;5111442;28;20203;-74
2021/08/21 05:02:14;;;;;;;1999.90;999.90;;;;;;;18.47;75.92;95848.72;5112865;28;20256;-74
2021/08/21 05:04:41;;;;;;;1999.90;999.90;;;;;;;18.55;76.11;95847.81;5112787;28;20260;-74
2021/08/21 05:07:09;;;;;;;1999.90;999.90;;;;;;;18.34;77.95;95847.97;5112494;28;20219;-74
2021/08/21 05:09:36;;;;;;;1999.90;999.90;;;;;;;18.44;78.00;95844.88;5112351;28;20256;-74
2021/08/21 05:12:05;;;;;;;1999.90;999.90;;;;;;;18.28;79.75;95848.56;5112637;28;20203;-74
2021/08/21 05:14:33;;;;;;;1999.90;999.90;;;;;;;18.15;81.30;95847.03;5112185;28;20306;-74
2021/08/21 05:17:00;;;;;;;1999.90;999.90;;;;;;;18.24;81.75;95851.06;5112483;28;20288;-75
2021/08/21 05:19:31;;;;;;;1999.90;999.90;;;;;;;18.47;80.68;95853.97;5112429;28;20202;-74
2021/08/21 05:22:10;;;;;;;1999.90;999.90;;;;;;;18.56;76.94;95854.63;5112293;28;20282;-74
2021/08/21 05:24:37;;;;;;;1999.90;999.90;;;;;;;18.70;74.66;95855.00;5112156;28;20664;-75
2021/08/21 05:27:06;;;;;;;1999.90;999.90;;;;;;;18.86;75.65;95844.50;5112017;28;20227;-75
2021/08/21 05:29:33;;;;;;;1999.90;999.90;;;;;;;18.96;76.41;95845.88;5111912;28;20206;-74
2021/08/21 05:32:01;;;;;;;1999.90;999.90;;;;;;;19.20;76.38;95845.72;5112105;28;20203;-76
2021/08/21 05:34:28;;;;;;;1999.90;999.90;;;;;;;19.50;73.06;95849.50;5112173;28;20225;-74
2021/08/21 05:36:55;;;;;;;1999.90;999.90;;;;;;;19.61;72.46;95844.50;5112038;28;20249;-74
2021/08/21 05:39:22;;;;;;;1999.90;999.90;;;;;;;19.81;72.61;95847.94;5112322;28;20244;-74
2021/08/21 05:41:49;;;;;;;1999.90;999.90;;;;;;;19.81;73.64;95848.72;5111955;28;20191;-74
2021/08/21 05:44:18;;;;;;;1999.90;999.90;;;;;;;19.90;74.85;95846.66;5111749;28;20202;-74
2021/08/21 05:46:45;;;;;;;1999.90;999.90;;;;;;;19.89;75.11;95849.63;5111586;28;20264;-73
2021/08/21 05:49:12;;;;;;;1999.90;999.90;;;;;;;20.00;73.04;95855.91;5111616;28;20295;-71
2021/08/21 05:51:39;;;;;;;1999.90;999.90;;;;;;;20.18;72.43;95849.13;5111920;28;20206;-74
2021/08/21 05:54:06;;;;;;;1999.90;999.90;;;;;;;20.43;70.70;95845.16;5111638;28;20238;-75
2021/08/21 05:56:33;;;;;;;1999.90;999.90;;;;;;;20.75;68.38;95845.00;5111547;28;20195;-75
2021/08/21 05:59:00;;;;;;;1999.90;999.90;;;;;;;20.89;65.94;95850.53;5111940;28;20634;-74
2021/08/21 06:01:30;;;;;;;1999.90;999.90;;;;;;;21.14;64.34;95851.00;5111510;28;20199;-75
2021/08/21 06:03:57;;;;;;;1999.90;999.90;;;;;;;21.32;63.81;95841.53;5111489;28;20195;-74
2021/08/21 06:06:25;;;;;;;1999.90;999.90;;;;;;;21.66;60.48;95848.47;5111588;28;20572;-74
2021/08/21 06:08:52;;;;;;;1999.90;999.90;;;;;;;21.76;61.23;95847.88;5111457;28;20222;-75
2021/08/21 06:11:19;;;;;;;1999.90;999.90;;;;;;;21.95;61.05;95848.91;5111557;28;20207;-74
2021/08/21 06:13:46;;;;;;;1999.90;999.90;;;;;;;21.68;60.35;95850.75;5111653;28;20199;-75
2021/08/21 06:16:13;;;;;;;1999.90;999.90;;;;;;;21.88;60.44;95845.00;5111606;28;20214;-75
2021/08/21 06:18:41;;;;;;;1999.90;999.90;;;;;;;22.02;59.92;95849.75;5111470;28;20328;-75
2021/08/21 06:21:08;;;;;;;1999.90;999.90;;;;;;;22.27;59.04;95848.22;5111371;28;20578;-75
2021/08/21 06:23:35;;;;;;;1999.90;999.90;;;;;;;22.74;55.92;95844.25;5111014;28;20202;-76
2021/08/21 06:26:02;;;;;;;1999.90;999.90;;;;;;;22.62;55.44;95839.91;5111367;28;20195;-75
2021/08/21 06:28:29;;;;;;;1999.90;999.90;;;;;;;22.75;55.69;95848.44;5107655;28;20219;-76
2021/08/21 06:30:56;;;;;;;1999.90;999.90;;;;;;;23.00;53.94;95849.47;5110948;28;20206;-75
2021/08/21 06:33:23;;;;;;;1999.90;999.90;;;;;;;23.35;52.69;95843.72;5110909;28;20256;-75
2021/08/21 06:35:52;;;;;;;1999.90;999.90;;;;;;;23.56;53.44;95845.81;5111101;28;20199;-75
2021/08/21 06:38:19;;;;;;;1999.90;999.90;;;;;;;23.63;53.88;95842.44;5110749;28;20191;-74
2021/08/21 06:40:46;;;;;;;1999.90;999.90;;;;;;;24.01;50.99;95847.22;5110871;28;20620;-74
2021/08/21 06:43:13;;;;;;;1999.90;999.90;;;;;;;23.99;50.27;95842.31;5111208;28;20552;-74
2021/08/21 06:45:40;;;;;;;1999.90;999.90;;;;;;;23.88;51.05;95844.13;5108174;28;20583;-74
2021/08/21 06:48:07;;;;;;;1999.90;999.90;;;;;;;23.70;52.74;95845.91;5090134;28;20220;-74
2021/08/21 06:50:36;;;;;;;1999.90;999.90;;;;;;;23.88;52.46;95844.13;5109298;28;20283;-74
2021/08/21 06:53:05;;;;;;;1999.90;999.90;;;;;;;23.88;52.47;95841.47;5110858;28;20288;-74
2021/08/21 06:55:32;;;;;;;1999.90;999.90;;;;;;;23.99;52.48;95837.00;5110375;28;20244;-75
2021/08/21 06:57:59;;;;;;;1999.90;999.90;;;;;;;24.01;51.96;95839.25;5110484;28;20284;-74
2021/08/21 07:00:26;;;;;;;1999.90;999.90;;;;;;;24.31;50.90;95839.81;5110646;28;20641;-75
2021/08/21 07:02:53;;;;;;;1999.90;999.90;;;;;;;24.34;50.46;95843.66;5110661;28;20268;-75
2021/08/21 07:05:21;;;;;;;1999.90;999.90;;;;;;;24.58;48.85;95852.84;5110537;28;20199;-75
2021/08/21 07:07:48;;;;;;;1999.90;999.90;;;;;;;24.75;46.72;95844.19;5110626;28;20227;-73
2021/08/21 07:10:16;;;;;;;1999.90;999.90;;;;;;;24.93;47.92;95839.69;5110083;28;20256;-74
2021/08/21 07:12:43;;;;;;;1999.90;999.90;;;;;;;25.11;46.91;95847.69;5110549;28;20227;-73
2021/08/21 07:15:11;;;;;;;1999.90;999.90;;;;;;;25.05;46.09;95847.31;5110062;28;20199;-74
2021/08/21 07:17:39;;;;;;;1999.90;999.90;;;;;;;25.16;47.05;95849.97;5110169;28;20789;-74
2021/08/21 07:20:07;;;;;;;1999.90;999.90;;;;;;;25.16;46.58;95849.97;5109987;28;20267;-75
2021/08/21 07:22:34;;;;;;;1999.90;999.90;;;;;;;25.22;46.09;95853.78;5109575;28;20667;-74
2021/08/21 07:25:01;;;;;;;1999.90;999.90;;;;;;;25.38;46.16;95843.56;5110244;28;20256;-74
2021/08/21 07:27:30;;;;;;;1999.90;999.90;;;;;;;25.48;45.46;95845.47;5110105;28;20230;-74
2021/08/21 07:29:57;;;;;;;1999.90;999.90;;;;;;;25.64;45.67;95848.53;5109867;28;20199;-74
2021/08/21 07:32:24;;;;;;;1999.90;999.90;;;;;;;25.68;43.94;95848.53;5109929;28;21007;-74
2021/08/21 07:34:51;;;;;;;1999.90;999.90;;;;;;;25.58;43.80;95852.72;5109736;28;20198;-75
2021/08/21 07:37:19;;;;;;;1999.90;999.90;;;;;;;25.65;43.51;95844.69;5109668;28;20195;-74
2021/08/21 07:39:46;;;;;;;1999.90;999.90;;;;;;;25.89;42.59;95845.84;5109803;28;20285;-74
2021/08/21 07:42:13;;;;;;;1999.90;999.90;;;;;;;25.97;41.70;95850.00;5109954;28;20190;-75
2021/08/21 07:44:41;;;;;;;1999.90;999.90;;;;;;;25.93;41.89;95848.50;5109931;28;20203;-75
2021/08/21 07:47:08;;;;;;;1999.90;999.90;;;;;;;25.99;42.38;95846.97;5109560;28;20199;-75
2021/08/21 07:49:36;;;;;;;1999.90;999.90;;;;;;;26.12;42.70;95848.06;5109344;28;20313;-75
2021/08/21 07:52:03;;;;;;;1999.90;999.90;;;;;;;26.34;41.09;95852.22;5109490;28;20209;-75
2021/08/21 07:54:30;;;;;;;1999.90;999.90;;;;;;;26.40;41.29;95849.94;5109755;28;20643;-75
2021/08/21 07:56:57;;;;;;;1999.90;999.90;;;;;;;26.42;40.68;95852.94;5109543;28;20199;-75
2021/08/21 07:59:24;;;;;;;1999.90;999.90;;;;;;;26.63;40.82;95847.53;5109675;28;20195;-75
2021/08/21 08:01:53;;;;;;;1999.90;999.90;;;;;;;26.38;39.70;95852.97;5109475;28;20199;-75
2021/08/21 08:04:20;;;;;;;1999.90;999.90;;;;;;;26.45;39.34;95852.94;5109397;28;20208;-75
2021/08/21 08:06:47;;;;;;;1999.90;999.90;;;;;;;26.56;38.75;95852.91;5109922;28;20267;-75
2021/08/21 08:09:14;;;;;;;1999.90;999.90;;;;;;;26.72;38.04;95849.78;5109637;28;20781;-75
2021/08/21 08:11:42;;;;;;;1999.90;999.90;;;;;;;26.63;41.53;95849.44;5109386;28;20195;-75
2021/08/21 08:14:09;;;;;;;1999.90;999.90;;;;;;;27.00;39.70;95844.31;5109690;28;20199;-75
2021/08/21 08:16:36;;;;;;;1999.90;999.90;;;;;;;27.15;38.56;95842.34;5109224;28;20256;-75
2021/08/21 08:19:04;;;;;;;1999.90;999.90;;;;;;;27.41;37.99;95845.19;5109485;28;20760;-75
2021/08/21 08:21:31;;;;;;;1999.90;999.90;;;;;;;27.69;37.42;95840.81;5108684;28;20194;-75
2021/08/21 08:23:58;;;;;;;1999.90;999.90;;;;;;;27.81;37.09;95848.31;5107364;28;20195;-76
2021/08/21 08:26:25;;;;;;;1999.90;999.90;;;;;;;27.86;36.73;95839.88;5109317;28;20252;-75
2021/08/21 08:28:52;;;;;;;1999.90;999.90;;;;;;;27.79;37.31;95848.72;5109563;28;20231;-76
2021/08/21 08:31:19;;;;;;;1999.90;999.90;;;;;;;27.71;36.45;95839.25;5109203;28;20238;-75
2021/08/21 08:33:46;;;;;;;1999.90;999.90;;;;;;;27.85;35.32;95854.38;5110511;28;20203;-76
2021/08/21 08:36:15;;;;;;;1999.90;999.90;;;;;;;27.75;36.00;95847.22;5113391;28;20290;-75
2021/08/21 08:38:42;;;;;;;1999.90;999.90;;;;;;;27.62;36.02;95848.88;5113278;28;20191;-74
2021/08/21 08:41:10;;;;;;;1999.90;999.90;;;;;;;27.38;37.76;95851.31;5113561;28;20206;-74
2021/08/21 08:43:37;;;;;;;1999.90;999.90;;;;;;;27.35;37.79;95849.41;5113193;28;20223;-76
2021/08/21 08:46:05;;;;;;;1999.90;999.90;;;;;;;27.07;37.03;95844.28;5109204;28;20191;-76
2021/08/21 08:48:35;;;;;;;1999.90;999.90;;;;;;;27.34;36.37;95847.16;5102851;28;20292;-76
2021/08/21 08:51:02;;;;;;;1999.90;999.90;;;;;;;27.44;36.03;95846.31;5118295;28;20286;-76
2021/08/21 08:53:30;;;;;;;1999.90;999.90;;;;;;;27.61;36.43;95836.66;5114072;28;20731;-74
2021/08/21 08:55:57;;;;;;;1999.90;999.90;;;;;;;27.55;36.61;95835.56;5113180;28;20219;-75
2021/08/21 08:58:25;;;;;;;1999.90;999.90;;;;;;;27.21;37.34;95833.50;5112813;28;20636;-75
2021/08/21 09:00:52;;;;;;;1999.90;999.90;;;;;;;27.09;37.58;95823.31;5112852;28;20195;-74
2021/08/21 09:03:21;;;;;;;1999.90;999.90;;;;;;;27.36;37.45;95823.47;5112673;28;20624;-75
2021/08/21 09:05:49;;;;;;;1999.90;999.90;;;;;;;27.76;36.94;95830.03;5112573;28;20664;-74
2021/08/21 09:08:27;;;;;;;1999.90;999.90;;;;;;;27.88;35.70;95823.44;5112446;28;20222;-74
2021/08/21 09:10:56;;;;;;;1999.90;999.90;;;;;;;28.06;34.27;95822.09;5112697;28;20868;-74
2021/08/21 09:13:24;;;;;;;1999.90;999.90;;;;;;;28.45;35.89;95824.38;5112785;28;20227;-75
2021/08/21 09:15:54;;;;;;;1999.90;999.90;;;;;;;28.48;33.71;95822.81;5112894;28;20202;-75
2021/08/21 09:18:23;;;;;;;1999.90;999.90;;;;;;;28.69;35.02;95827.91;5112542;28;20248;-76
2021/08/21 09:20:55;;;;;;;1999.90;999.90;;;;;;;28.81;34.21;95826.63;5112653;28;20261;-75
2021/08/21 09:23:28;;;;;;;1999.90;999.90;;;;;;;28.90;33.82;95822.28;5107322;28;20249;-75
2021/08/21 09:26:06;;;;;;;1999.90;999.90;;;;;;;28.46;34.18;95817.09;5100911;28;20723;-76
2021/08/21 09:28:33;;;;;;;1999.90;999.90;;;;;;;28.80;35.94;95823.19;5092060;28;20216;-76
2021/08/21 09:31:06;;;;;;;1999.90;999.90;;;;;;;29.09;34.65;95824.28;5091973;28;20735;-75
2021/08/21 09:33:35;;;;;;;1999.90;999.90;;;;;;;28.93;34.77;95813.47;5091908;28;20188;-73
2021/08/21 09:36:03;;;;;;;1999.90;999.90;;;;;;;29.19;32.79;95819.22;5091740;28;20264;-73
2021/08/21 09:38:32;;;;;;;1999.90;999.90;;;;;;;29.14;33.83;95817.75;5101874;28;20187;-73
2021/08/21 09:41:03;;;;;;;1999.90;999.90;;;;;;;29.12;33.55;95803.25;5111483;28;20203;-73
2021/08/21 09:43:32;;;;;;;1999.90;999.90;;;;;;;29.57;33.84;95812.50;5110443;28;20612;-73
2021/08/21 09:46:21;;;;;;;1999.90;999.90;;;;;;;29.66;32.78;95807.34;5110172;28;20899;-73
2021/08/21 09:49:02;;;;;;;1999.90;999.90;;;;;;;29.81;32.75;95799.81;5110798;28;20234;-74
2021/08/21 09:51:34;;;;;;;1999.90;999.90;;;;;;;29.94;31.98;95793.47;5111831;28;20253;-73
2021/08/21 09:54:02;;;;;;;1999.90;999.90;;;;;;;30.09;32.23;95796.63;5111357;28;20179;-73
2021/08/21 09:56:34;;;;;;;1999.90;999.90;;;;;;;29.94;32.81;95792.72;5111408;28;20276;-73
2021/08/21 09:59:02;;;;;;;1999.90;999.90;;;;;;;30.33;33.06;95783.94;5111680;28;20191;-73
2021/08/21 10:01:30;;;;;;;1999.90;999.90;;;;;;;30.26;31.13;95784.06;5111671;28;20252;-73
2021/08/21 10:03:57;;;;;;;1999.90;999.90;;;;;;;30.29;31.25;95788.59;5111485;28;20207;-73
2021/08/21 10:06:25;;;;;;;1999.90;999.90;;;;;;;30.26;32.16;95787.50;5111760;28;20272;-73
2021/08/21 10:08:55;;;;;;;1999.90;999.90;;;;;;;30.61;30.85;95777.22;5111633;28;20597;-73
2021/08/21 10:11:22;;;;;;;1999.90;999.90;;;;;;;30.69;31.68;95781.25;5111657;28;20183;-72
2021/08/21 10:13:51;;;;;;;1999.90;999.90;;;;;;;30.66;31.74;95777.50;5111676;28;20195;-73
2021/08/21 10:16:19;;;;;;;1999.90;999.90;;;;;;;31.00;30.02;95779.03;5111561;28;20203;-73
2021/08/21 10:18:48;;;;;;;1999.90;999.90;;;;;;;31.19;29.09;95783.59;5111408;28;20191;-73
2021/08/21 10:21:16;;;;;;;1999.90;999.90;;;;;;;31.18;30.45;95779.44;5111156;28;20196;-72
2021/08/21 10:23:44;;;;;;;1999.90;999.90;;;;;;;31.20;29.64;95787.81;5111285;28;20186;-73
2021/08/21 10:26:19;;;;;;;1999.90;999.90;;;;;;;31.52;30.18;95779.75;5107853;28;20195;-73
2021/08/21 10:28:48;;;;;;;1999.90;999.90;;;;;;;31.48;30.13;95778.31;5111251;28;20210;-73
2021/08/21 10:31:38;;;;;;;1999.90;999.90;;;;;;;31.93;30.30;95772.97;5111206;28;20216;-73
2021/08/21 10:34:07;;;;;;;1999.90;999.90;;;;;;;31.70;28.49;95768.56;5111069;28;20294;-73
2021/08/21 10:36:48;;;;;;;1999.90;999.90;;;;;;;31.50;28.59;95765.97;5111209;28;20591;-74
2021/08/21 10:39:21;;;;;;;1999.90;999.90;;;;;;;31.51;29.13;95764.78;5111176;28;20262;-73
2021/08/21 10:41:50;;;;;;;1999.90;999.90;;;;;;;31.69;28.54;95758.22;5110677;28;20195;-73
2021/08/21 10:44:43;;;;;;;1999.90;999.90;;;;;;;31.45;28.81;95763.78;5110747;28;20203;-73
2021/08/21 10:47:36;;;;;;;1999.90;999.90;;;;;;;31.60;28.30;95759.59;5095263;28;20203;-73
2021/08/21 10:50:31;;;;;;;1999.90;999.90;;;;;;;31.46;30.43;95757.25;5104579;28;20249;-72
2021/08/21 10:52:59;;;;;;;1999.90;999.90;;;;;;;31.85;29.87;95758.19;5110571;28;20183;-73
2021/08/21 10:55:28;;;;;;;1999.90;999.90;;;;;;;32.04;29.60;95757.25;5110737;28;20630;-73
2021/08/21 10:57:57;;;;;;;1999.90;999.90;;;;;;;32.19;29.16;95750.34;5109751;28;20679;-73
2021/08/21 11:00:44;;;;;;;1999.90;999.90;;;;;;;32.40;29.18;95754.38;5110616;28;20218;-72